Time;durP1;ratioP1;P1;durP2;ratioP2;P2;SDS_P1;SDS_P2;PMS_P1;PMS_P2;Temp;Humidity;BMP_temperature;BMP_pressure;BME280_temperature;BME280_humidity;BME280_pressure;Samples;Min_cycle;Max_cycle;Signal;HPM_P1;HPM_P2
2024/04/22 00:01:22;;;;;;;3.15;2.50;;;;;;;5.54;86.06;94406.13;5491684;25;20332;-66
2024/04/22 00:03:48;;;;;;;4.47;2.60;;;;;;;5.52;86.70;94407.16;5523094;26;20033;-65
2024/04/22 00:06:13;;;;;;;4.15;2.50;;;;;;;5.53;85.58;94424.25;5463755;25;19997;-65
2024/04/22 00:08:38;;;;;;;4.68;2.30;;;;;;;5.55;84.95;94418.06;5493882;26;20017;-65
2024/04/22 00:11:04;;;;;;;2.90;1.98;;;;;;;5.68;86.05;94428.34;5491693;25;20015;-65
2024/04/22 00:13:29;;;;;;;3.22;2.50;;;;;;;5.68;86.86;94418.03;5526167;26;20007;-65
2024/04/22 00:15:55;;;;;;;6.00;3.50;;;;;;;5.75;86.41;94424.41;5526559;26;20001;-66
2024/04/22 00:18:20;;;;;;;4.13;2.90;;;;;;;5.78;86.34;94434.50;5526517;25;20490;-65
2024/04/22 00:20:46;;;;;;;4.13;2.47;;;;;;;5.60;86.10;94439.19;5491515;26;20005;-66
2024/04/22 00:23:11;;;;;;;7.32;3.53;;;;;;;5.47;86.67;94432.41;5493599;26;19989;-65
2024/04/22 00:25:37;;;;;;;6.22;3.38;;;;;;;5.50;87.40;94424.47;5526043;26;20101;-65
2024/04/22 00:28:02;;;;;;;5.50;3.78;;;;;;;5.58;87.16;94440.22;5463588;26;19986;-65
2024/04/22 00:30:28;;;;;;;4.90;3.38;;;;;;;5.80;87.14;94445.53;5491733;26;20012;-65
2024/04/22 00:32:53;;;;;;;3.30;2.53;;;;;;;5.66;86.57;94460.31;5463010;26;20513;-65
2024/04/22 00:35:18;;;;;;;3.08;1.98;;;;;;;5.69;86.96;94455.78;5494081;26;20103;-65
2024/04/22 00:37:44;;;;;;;3.08;2.25;;;;;;;5.36;86.26;94439.13;5492991;26;20069;-66
2024/04/22 00:40:09;;;;;;;3.45;2.25;;;;;;;5.61;85.18;94468.38;5490839;26;20001;-65
2024/04/22 00:42:35;;;;;;;3.75;2.38;;;;;;;5.61;85.40;94460.63;5526035;25;20004;-65
2024/04/22 00:45:00;;;;;;;3.25;2.33;;;;;;;5.41;85.80;94468.91;5493131;26;20033;-66
2024/04/22 00:47:26;;;;;;;3.15;2.05;;;;;;;5.48;84.36;94472.69;5486544;26;20022;-65
2024/04/22 00:49:51;;;;;;;4.80;2.58;;;;;;;5.53;84.46;94478.38;5524336;26;19994;-66
2024/04/22 00:52:17;;;;;;;3.28;2.30;;;;;;;5.61;85.61;94470.94;5525419;25;19994;-65
2024/04/22 00:54:42;;;;;;;3.20;2.22;;;;;;;5.46;86.09;94469.41;5462928;26;20021;-65
2024/04/22 00:57:07;;;;;;;4.03;2.33;;;;;;;5.46;85.79;94485.72;5490135;26;20443;-65
2024/04/22 00:59:33;;;;;;;3.67;2.50;;;;;;;5.59;85.39;94480.53;5463024;26;20025;-66
2024/04/22 01:01:58;;;;;;;4.40;2.53;;;;;;;5.58;85.08;94486.63;5461666;26;20000;-65
2024/04/22 01:04:24;;;;;;;4.20;2.35;;;;;;;5.51;85.74;94485.38;5525979;26;20473;-66
2024/04/22 01:06:49;;;;;;;3.60;2.63;;;;;;;5.69;85.77;94489.28;5463390;26;20073;-65
2024/04/22 01:09:14;;;;;;;4.07;2.33;;;;;;;5.40;86.33;94482.69;5493416;26;20029;-65
2024/04/22 01:11:40;;;;;;;3.42;2.20;;;;;;;5.51;86.45;94478.47;5524992;25;20487;-66
2024/04/22 01:14:05;;;;;;;3.63;2.30;;;;;;;5.35;83.93;94440.06;5492938;26;20044;-65
2024/04/22 01:16:30;;;;;;;3.10;2.20;;;;;;;5.61;83.24;94494.13;5485663;26;20002;-66
2024/04/22 01:18:56;;;;;;;3.20;2.13;;;;;;;5.71;84.51;94489.16;5492658;26;20429;-65
2024/04/22 01:21:28;;;;;;;3.33;2.42;;;;;;;5.57;85.55;94479.78;5462636;25;20033;-66
2024/04/22 01:23:53;;;;;;;3.45;2.63;;;;;;;5.55;86.26;94497.94;5520987;26;20088;-66
2024/04/22 01:26:19;;;;;;;4.22;2.80;;;;;;;5.51;85.62;94490.53;5459089;25;20439;-65
2024/04/22 01:28:44;;;;;;;3.35;2.42;;;;;;;5.38;85.22;94496.53;5461708;26;20444;-65
2024/04/22 01:31:09;;;;;;;2.72;2.20;;;;;;;5.32;85.92;94496.94;5525396;25;20004;-65
2024/04/22 01:33:35;;;;;;;2.90;2.25;;;;;;;5.45;84.90;94489.19;5460195;26;20366;-66
2024/04/22 01:36:00;;;;;;;2.92;2.28;;;;;;;5.31;85.18;94495.28;5519304;25;20484;-66
2024/04/22 01:38:26;;;;;;;3.47;2.45;;;;;;;5.15;84.46;94480.03;5525438;26;20001;-65
2024/04/22 01:40:51;;;;;;;3.10;2.30;;;;;;;5.30;85.13;94516.00;5492538;26;19997;-65
2024/04/22 01:43:16;;;;;;;3.78;2.15;;;;;;;5.43;85.02;94500.53;5490625;26;20012;-65
2024/04/22 01:45:42;;;;;;;3.25;2.28;;;;;;;5.32;84.87;94517.53;5492534;26;20001;-65
2024/04/22 01:48:07;;;;;;;3.45;2.30;;;;;;;5.31;83.83;94513.31;5525234;25;19997;-65
2024/04/22 01:50:32;;;;;;;3.25;2.30;;;;;;;5.06;84.16;94508.13;5493002;26;19986;-65
2024/04/22 01:52:58;;;;;;;3.78;2.33;;;;;;;4.95;85.38;94515.75;5457768;26;20012;-65
2024/04/22 01:55:23;;;;;;;3.30;2.50;;;;;;;5.19;85.18;94508.97;5462716;26;20476;-65
2024/04/22 01:57:49;;;;;;;3.15;2.08;;;;;;;5.31;84.24;94509.91;5492383;26;20034;-65
2024/04/22 02:00:14;;;;;;;3.33;2.15;;;;;;;5.23;83.93;94515.56;5523536;26;19998;-65
2024/04/22 02:02:39;;;;;;;3.60;2.25;;;;;;;5.09;84.59;94513.09;5521545;26;20322;-65
2024/04/22 02:05:05;;;;;;;3.47;2.53;;;;;;;5.12;84.42;94510.31;5492372;26;20065;-65
2024/04/22 02:07:30;;;;;;;4.13;2.90;;;;;;;5.10;84.05;94522.47;5462495;26;19986;-65
2024/04/22 02:09:56;;;;;;;3.90;2.20;;;;;;;4.92;84.77;94504.72;5486399;26;20022;-65
2024/04/22 02:12:21;;;;;;;3.70;2.20;;;;;;;4.96;83.50;94514.81;5491418;26;20009;-65
2024/04/22 02:14:47;;;;;;;4.85;2.63;;;;;;;4.78;83.97;94519.41;5524657;26;19993;-65
2024/04/22 02:17:12;;;;;;;3.40;2.40;;;;;;;4.72;84.43;94519.81;5524125;25;20012;-65
2024/04/22 02:19:37;;;;;;;4.35;2.40;;;;;;;4.56;85.19;94504.53;5518059;26;20065;-65
2024/04/22 02:22:03;;;;;;;3.92;2.63;;;;;;;4.54;85.79;94522.66;5491965;26;20464;-65
2024/04/22 02:24:29;;;;;;;3.90;2.78;;;;;;;4.29;86.02;94489.09;5491675;26;20388;-65
2024/04/22 02:26:54;;;;;;;3.45;2.38;;;;;;;4.27;86.79;94520.06;5524785;25;20033;-65
2024/04/22 02:29:20;;;;;;;3.63;2.70;;;;;;;4.17;87.41;94518.97;5463752;26;20068;-65
2024/04/22 02:31:45;;;;;;;6.68;2.95;;;;;;;3.97;88.80;94508.19;5523876;25;20009;-65
2024/04/22 02:34:11;;;;;;;3.90;2.97;;;;;;;3.99;89.49;94526.91;5524060;26;20062;-65
2024/04/22 02:36:36;;;;;;;3.50;2.60;;;;;;;3.83;89.84;94521.06;5460967;26;20416;-65
2024/04/22 02:39:01;;;;;;;4.05;2.97;;;;;;;3.93;90.04;94537.59;5458412;26;19999;-65
2024/04/22 02:41:27;;;;;;;3.80;2.95;;;;;;;3.95;89.62;94532.34;5468775;26;20114;-65
2024/04/22 02:43:52;;;;;;;5.63;3.08;;;;;;;3.94;90.56;94528.94;5490819;26;20046;-65
2024/04/22 02:46:18;;;;;;;5.50;3.58;;;;;;;4.02;90.23;94521.59;5486889;26;20433;-65
2024/04/22 02:48:43;;;;;;;5.53;3.55;;;;;;;4.06;90.06;94527.34;5488668;26;20070;-65
2024/04/22 02:51:08;;;;;;;5.32;3.70;;;;;;;4.18;89.92;94533.47;5436318;26;19994;-65
2024/04/22 02:53:34;;;;;;;3.95;3.30;;;;;;;4.18;90.86;94536.06;5477890;26;19995;-65
2024/04/22 02:55:59;;;;;;;4.72;3.47;;;;;;;4.51;90.84;94543.41;5475703;26;20436;-65
2024/04/22 02:58:24;;;;;;;6.10;5.00;;;;;;;4.62;90.39;94540.16;5459086;26;20009;-65
2024/04/22 03:00:54;;;;;;;5.10;4.07;;;;;;;4.67;90.04;94541.50;5490305;26;20047;-65
2024/04/22 03:03:19;;;;;;;4.68;3.42;;;;;;;4.68;89.56;94545.75;5487948;26;19994;-65
2024/04/22 03:05:45;;;;;;;4.25;3.50;;;;;;;4.80;89.27;94543.31;5484720;26;20023;-66
2024/04/22 03:08:10;;;;;;;4.75;3.58;;;;;;;4.79;88.84;94542.50;5488413;26;19998;-65
2024/04/22 03:10:39;;;;;;;4.13;3.60;;;;;;;4.87;88.82;94547.94;5490441;26;20353;-65
2024/04/22 03:13:08;;;;;;;4.60;3.63;;;;;;;4.87;89.10;94545.38;5442436;26;20027;-65
2024/04/22 03:15:37;;;;;;;3.97;3.40;;;;;;;4.67;88.87;94548.41;5484589;26;20447;-66
2024/04/22 03:18:03;;;;;;;4.55;3.83;;;;;;;4.79;88.57;94563.09;5458823;26;20040;-65
2024/04/22 03:20:29;;;;;;;5.15;4.13;;;;;;;4.81;87.80;94550.91;5487631;26;20010;-66
2024/04/22 03:22:55;;;;;;;4.68;3.95;;;;;;;4.73;88.03;94555.72;5468387;26;19994;-65
2024/04/22 03:25:20;;;;;;;4.93;4.05;;;;;;;4.78;87.48;94558.84;5487917;26;20022;-65
2024/04/22 03:27:45;;;;;;;4.72;4.07;;;;;;;4.75;88.21;94564.19;5489991;26;20408;-65
2024/04/22 03:30:11;;;;;;;5.07;4.20;;;;;;;4.60;88.34;94554.88;5490258;26;20002;-65
2024/04/22 03:32:37;;;;;;;5.05;4.18;;;;;;;4.66;88.70;94575.88;5481079;26;20009;-65
2024/04/22 03:35:03;;;;;;;5.45;4.30;;;;;;;4.67;88.96;94576.72;5448071;26;20071;-65
2024/04/22 03:37:28;;;;;;;6.18;4.53;;;;;;;4.76;88.52;94589.00;5407106;26;19994;-65
2024/04/22 03:39:54;;;;;;;5.60;4.07;;;;;;;4.83;87.42;94581.72;5464272;26;19993;-66
2024/04/22 03:42:19;;;;;;;5.07;4.53;;;;;;;4.81;88.08;94568.94;5490820;26;20008;-65
2024/04/22 03:44:45;;;;;;;5.53;4.45;;;;;;;4.94;88.19;94576.72;5525822;26;20004;-66
2024/04/22 03:49:56;;;;;;;4.80;4.13;;;;;;;4.72;87.23;94558.41;5522434;26;20065;-66
2024/04/22 03:52:21;;;;;;;5.60;5.00;;;;;;;4.87;87.61;94591.69;5493544;26;20444;-66
2024/04/22 03:54:47;;;;;;;7.53;4.93;;;;;;;4.81;88.14;94589.53;5463729;26;20046;-66
2024/04/22 03:57:12;;;;;;;6.63;5.80;;;;;;;4.88;88.50;94595.94;5493692;26;19997;-65
2024/04/22 03:59:41;;;;;;;5.28;4.28;;;;;;;4.85;87.79;94603.03;5459520;26;20439;-65
2024/04/22 04:02:06;;;;;;;5.15;4.05;;;;;;;4.84;87.55;94606.53;5525577;25;20423;-65
2024/04/22 04:04:32;;;;;;;4.97;4.05;;;;;;;4.88;87.94;94606.25;5494359;26;19993;-65
2024/04/22 04:06:57;;;;;;;4.85;4.30;;;;;;;4.91;86.87;94597.50;5482255;26;19997;-65
2024/04/22 04:09:23;;;;;;;4.75;4.15;;;;;;;4.84;88.08;94601.38;5521430;26;20039;-65
2024/04/22 04:11:51;;;;;;;5.75;4.30;;;;;;;4.79;88.27;94609.41;5525376;25;20351;-65
2024/04/22 04:14:17;;;;;;;4.60;4.07;;;;;;;4.87;87.95;94608.91;5462264;26;20016;-66
2024/04/22 04:16:42;;;;;;;4.75;4.25;;;;;;;4.88;88.30;94608.00;5492903;26;20442;-66
2024/04/22 04:19:08;;;;;;;4.53;3.92;;;;;;;5.10;88.46;94622.91;5521147;26;20475;-65
2024/04/22 04:21:33;;;;;;;5.10;4.28;;;;;;;5.10;87.34;94622.91;5497672;26;20037;-66
2024/04/22 04:23:58;;;;;;;5.32;4.10;;;;;;;5.14;86.50;94621.75;5525584;26;20462;-65
2024/04/22 04:26:24;;;;;;;4.70;3.75;;;;;;;5.15;85.41;94631.97;5488274;26;20006;-66
2024/04/22 04:28:49;;;;;;;4.65;3.67;;;;;;;5.27;85.24;94639.84;5499722;26;20011;-65
2024/04/22 04:31:16;;;;;;;4.57;3.80;;;;;;;5.44;85.54;94636.97;5526178;25;19989;-66
2024/04/22 04:33:41;;;;;;;4.68;3.80;;;;;;;5.45;86.08;94641.19;5432878;26;19997;-65
2024/04/22 04:36:07;;;;;;;4.28;3.60;;;;;;;5.66;86.20;94641.56;5462860;25;19997;-65
2024/04/22 04:38:33;;;;;;;4.72;3.95;;;;;;;5.69;86.32;94648.25;5446245;26;20062;-65
2024/04/22 04:40:58;;;;;;;4.97;4.10;;;;;;;5.89;85.72;94649.50;5486533;26;20013;-65
2024/04/22 04:43:23;;;;;;;5.68;5.05;;;;;;;5.97;86.88;94644.69;5471766;26;20362;-65
2024/04/22 04:45:49;;;;;;;5.63;4.15;;;;;;;5.93;86.25;94638.91;5453965;26;20005;-65
2024/04/22 04:48:15;;;;;;;4.70;3.83;;;;;;;5.98;86.29;94630.84;5471128;26;20001;-66
2024/04/22 04:50:40;;;;;;;4.95;3.78;;;;;;;5.93;86.40;94646.63;5445731;26;19994;-65
2024/04/22 04:53:05;;;;;;;4.53;3.90;;;;;;;6.10;86.64;94648.09;5487566;26;20012;-65
2024/04/22 04:55:31;;;;;;;8.48;6.82;;;;;;;5.93;85.46;94656.94;5471529;26;20360;-65
2024/04/22 04:57:57;;;;;;;5.78;4.72;;;;;;;6.11;86.25;94651.50;5454296;26;19998;-65
2024/04/22 05:00:23;;;;;;;11.15;6.93;;;;;;;6.32;85.75;94654.34;5416420;26;20030;-65
2024/04/22 05:02:48;;;;;;;7.65;5.40;;;;;;;6.22;85.20;94652.41;5482820;26;20484;-66
2024/04/22 05:05:13;;;;;;;7.93;5.07;;;;;;;6.45;84.54;94650.81;5494028;26;20030;-65
2024/04/22 05:07:39;;;;;;;9.02;5.72;;;;;;;6.37;84.80;94649.72;5488906;26;19998;-65
2024/04/22 05:10:04;;;;;;;9.15;7.55;;;;;;;6.09;83.09;94637.88;5485133;26;20017;-66
2024/04/22 05:12:30;;;;;;;8.10;6.63;;;;;;;6.39;82.54;94651.25;5478875;26;20028;-66
2024/04/22 05:14:55;;;;;;;6.00;4.50;;;;;;;6.33;83.86;94656.03;5470877;26;20009;-66
2024/04/22 05:17:21;;;;;;;5.88;4.85;;;;;;;6.72;83.17;94657.59;5487503;26;20002;-66
2024/04/22 05:19:46;;;;;;;8.73;6.15;;;;;;;7.14;80.79;94668.41;5487901;26;20005;-65
2024/04/22 05:22:11;;;;;;;9.98;7.10;;;;;;;7.26;78.67;94662.34;5487358;26;20016;-65
2024/04/22 05:24:37;;;;;;;9.57;6.53;;;;;;;7.41;79.39;94665.59;5481512;26;20472;-64
2024/04/22 05:27:02;;;;;;;7.65;6.28;;;;;;;7.23;80.12;94672.06;5483269;26;19998;-66
2024/04/22 05:29:28;;;;;;;8.05;6.35;;;;;;;7.11;79.42;94664.28;5477493;26;20037;-65
2024/04/22 05:31:53;;;;;;;6.93;5.38;;;;;;;7.38;78.31;94670.97;5449126;26;20030;-64
2024/04/22 05:37:03;;;;;;;6.55;4.70;;;;;;;7.74;77.08;94676.97;5489771;26;20013;-64
2024/04/22 05:39:29;;;;;;;5.13;4.03;;;;;;;7.58;75.66;94682.47;5455455;26;20340;-65
2024/04/22 05:41:54;;;;;;;4.70;3.80;;;;;;;7.89;71.28;94678.44;5465016;26;20077;-64
2024/04/22 05:44:20;;;;;;;4.50;3.72;;;;;;;7.79;72.16;94690.38;5428765;26;20013;-64
2024/04/22 05:46:45;;;;;;;4.85;4.03;;;;;;;7.53;72.05;94677.63;5490091;26;20012;-64
2024/04/22 05:49:11;;;;;;;4.82;3.63;;;;;;;7.45;71.85;94679.94;5421589;26;20004;-65
2024/04/22 05:51:36;;;;;;;4.85;3.78;;;;;;;7.54;71.95;94661.16;5467980;26;20372;-64
2024/04/22 05:54:02;;;;;;;4.38;3.88;;;;;;;7.83;73.65;94686.66;5491307;26;20073;-64
2024/04/22 05:56:27;;;;;;;6.50;4.28;;;;;;;7.90;75.89;94672.31;5427690;26;20002;-65
2024/04/22 05:58:53;;;;;;;5.00;4.03;;;;;;;7.93;74.79;94677.25;5463166;26;20006;-64
2024/04/22 06:01:18;;;;;;;5.68;4.30;;;;;;;7.70;73.30;94678.13;5485323;26;20429;-64
2024/04/22 06:03:44;;;;;;;6.60;5.03;;;;;;;7.78;73.69;94689.56;5455514;26;20033;-64
2024/04/22 06:06:09;;;;;;;5.38;3.95;;;;;;;7.97;71.89;94686.44;5483569;26;20010;-64
2024/04/22 06:08:34;;;;;;;4.68;3.70;;;;;;;7.66;70.84;94699.97;5452264;26;20006;-64
2024/04/22 06:11:00;;;;;;;3.83;3.42;;;;;;;7.64;70.60;94694.09;5455543;26;20071;-64
2024/04/22 06:13:25;;;;;;;4.60;3.95;;;;;;;8.45;75.39;94701.81;5487851;26;20036;-64
2024/04/22 06:15:51;;;;;;;5.57;3.95;;;;;;;8.52;71.90;94699.59;5489586;26;20001;-64
2024/04/22 06:18:16;;;;;;;4.15;3.53;;;;;;;8.26;69.34;94681.66;5455174;26;20099;-64
2024/04/22 06:20:42;;;;;;;4.10;3.50;;;;;;;8.56;69.27;94706.19;5487752;26;20446;-64
2024/04/22 06:23:07;;;;;;;6.43;3.20;;;;;;;8.77;66.70;94708.06;5455482;26;20710;-64
2024/04/22 06:25:33;;;;;;;5.45;3.38;;;;;;;9.09;66.91;94713.34;5424624;26;19998;-64
2024/04/22 06:27:58;;;;;;;4.30;3.63;;;;;;;9.31;67.80;94702.91;5487489;26;19990;-64
2024/04/22 06:30:23;;;;;;;4.47;3.50;;;;;;;9.67;65.91;94708.69;5488271;26;20445;-64
2024/04/22 06:32:51;;;;;;;4.18;3.42;;;;;;;10.07;65.08;94715.81;5458150;26;20336;-64
2024/04/22 06:35:16;;;;;;;3.65;3.25;;;;;;;10.37;65.54;94709.91;5491064;26;20363;-64
2024/04/22 06:37:41;;;;;;;3.88;3.10;;;;;;;10.16;63.26;94716.84;5434261;26;19994;-64
2024/04/22 06:40:07;;;;;;;4.63;3.50;;;;;;;10.10;63.04;94692.22;5489679;26;20004;-64
2024/04/22 06:42:33;;;;;;;3.92;3.00;;;;;;;10.14;62.06;94718.72;5491182;26;20022;-64
2024/04/22 06:44:58;;;;;;;4.40;3.72;;;;;;;10.44;62.40;94728.38;5489337;26;20009;-64
2024/04/22 06:47:23;;;;;;;5.75;3.88;;;;;;;10.65;62.07;94723.97;5491301;26;20005;-64
2024/04/22 06:49:49;;;;;;;3.83;3.13;;;;;;;10.79;59.32;94730.59;5491317;26;20006;-64
2024/04/22 06:52:14;;;;;;;4.43;3.33;;;;;;;11.28;60.33;94729.00;5490912;26;20030;-64
2024/04/22 06:54:40;;;;;;;6.28;3.03;;;;;;;11.67;59.21;94726.44;5491186;26;19998;-64
2024/04/22 06:57:05;;;;;;;4.30;3.03;;;;;;;11.44;56.28;94727.66;5491002;26;20005;-64
2024/04/22 06:59:30;;;;;;;6.40;3.30;;;;;;;11.32;56.93;94732.16;5458820;26;19998;-64
2024/04/22 07:01:56;;;;;;;4.18;3.45;;;;;;;10.76;59.40;94704.06;5491187;26;20456;-64
2024/04/22 07:04:21;;;;;;;4.25;2.90;;;;;;;10.76;58.22;94738.66;5490837;26;20065;-64
2024/04/22 07:06:47;;;;;;;4.50;3.00;;;;;;;10.63;60.53;94644.53;5489433;26;19994;-64
2024/04/22 07:09:16;;;;;;;3.72;3.00;;;;;;;11.45;59.77;94755.28;5489169;26;20543;-64
2024/04/22 07:11:45;;;;;;;3.70;2.95;;;;;;;11.25;56.07;94754.44;5490894;26;20030;-65
2024/04/22 07:14:11;;;;;;;3.65;2.80;;;;;;;11.18;57.06;94744.56;5490882;26;20002;-64
2024/04/22 07:16:39;;;;;;;3.30;2.90;;;;;;;11.19;60.12;94754.00;5489378;26;19994;-64
2024/04/22 07:19:04;;;;;;;4.13;3.05;;;;;;;11.23;60.19;94764.97;5459021;26;19990;-64
2024/04/22 07:21:30;;;;;;;5.43;3.33;;;;;;;11.37;60.04;94769.81;5458761;26;19992;-65
2024/04/22 07:23:55;;;;;;;5.20;3.50;;;;;;;11.61;59.67;94766.84;5490850;26;20373;-65
2024/04/22 07:26:21;;;;;;;5.43;2.80;;;;;;;11.69;58.64;94770.56;5488676;26;19990;-64
2024/04/22 07:28:46;;;;;;;3.88;2.90;;;;;;;11.87;58.64;94776.78;5487755;26;20475;-64
2024/04/22 07:31:12;;;;;;;4.30;2.78;;;;;;;11.94;55.22;94777.03;5490826;26;20039;-64
2024/04/22 07:33:38;;;;;;;3.85;3.17;;;;;;;12.03;54.06;94771.81;5490510;26;20026;-65
2024/04/22 07:36:21;;;;;;;4.50;2.83;;;;;;;11.83;53.80;94770.16;5489158;26;20442;-64
2024/04/22 07:38:47;;;;;;;4.82;3.45;;;;;;;12.01;55.76;94778.16;5489164;26;20070;-64
2024/04/22 07:41:12;;;;;;;4.55;3.50;;;;;;;12.03;55.71;94771.00;5488713;26;20443;-65
2024/04/22 07:43:38;;;;;;;3.83;2.90;;;;;;;12.10;54.15;94777.34;5458511;26;20443;-65
2024/04/22 07:46:03;;;;;;;4.07;3.35;;;;;;;12.40;53.81;94762.53;5490388;26;19990;-65
2024/04/22 07:48:28;;;;;;;4.85;3.13;;;;;;;12.38;52.81;94770.47;5458339;26;20043;-65
2024/04/22 07:50:54;;;;;;;4.50;3.50;;;;;;;12.37;52.69;94768.81;5488787;26;20001;-65
2024/04/22 07:53:19;;;;;;;5.18;3.63;;;;;;;12.69;52.81;94767.66;5490087;26;20088;-64
2024/04/22 07:55:45;;;;;;;3.83;3.28;;;;;;;12.64;50.69;94767.25;5490020;26;19994;-66
2024/04/22 07:58:11;;;;;;;4.75;3.55;;;;;;;11.97;51.48;94776.78;5488173;26;20073;-65
2024/04/22 08:00:37;;;;;;;5.72;3.47;;;;;;;12.22;51.93;94776.22;5488144;26;20002;-66
2024/04/22 08:03:02;;;;;;;3.38;3.00;;;;;;;12.84;52.70;94781.91;5488509;26;20040;-64
2024/04/22 08:05:28;;;;;;;4.47;3.78;;;;;;;12.84;52.48;94774.09;5490053;26;20467;-65
2024/04/22 08:07:56;;;;;;;5.47;3.10;;;;;;;13.05;52.65;94783.47;5488301;26;20002;-65
2024/04/22 08:10:22;;;;;;;8.25;3.53;;;;;;;13.24;49.47;94788.63;5458275;26;19994;-65
2024/04/22 08:12:47;;;;;;;4.05;3.15;;;;;;;13.21;48.43;94775.88;5488125;26;19990;-64
2024/04/22 08:15:13;;;;;;;3.60;2.72;;;;;;;13.42;49.09;94788.69;5489879;26;20051;-64
2024/04/22 08:17:38;;;;;;;5.93;2.97;;;;;;;12.25;47.67;94783.75;5489941;26;20022;-64
2024/04/22 08:20:04;;;;;;;3.42;2.90;;;;;;;11.97;48.56;94777.59;5489863;26;20000;-64
2024/04/22 08:22:31;;;;;;;7.88;3.63;;;;;;;12.24;49.45;94779.53;5488064;26;20055;-65
2024/04/22 08:24:57;;;;;;;6.38;3.53;;;;;;;12.84;49.64;94779.28;5489773;26;20377;-64
2024/04/22 08:27:23;;;;;;;4.22;3.22;;;;;;;12.77;50.66;94775.59;5428017;26;20432;-65
2024/04/22 08:29:52;;;;;;;4.32;3.10;;;;;;;13.17;45.58;94782.31;5489853;26;20005;-65
2024/04/22 08:32:18;;;;;;;4.22;2.75;;;;;;;13.25;47.20;94777.22;5488148;26;20037;-65
2024/04/22 08:34:44;;;;;;;3.70;3.00;;;;;;;13.22;50.22;94777.50;5457471;26;20368;-65
2024/04/22 08:37:09;;;;;;;5.72;3.30;;;;;;;13.04;48.67;94780.06;5493496;26;19994;-65
2024/04/22 08:39:35;;;;;;;4.10;3.60;;;;;;;12.72;48.13;94776.00;5526744;25;20021;-65
2024/04/22 08:42:08;;;;;;;3.58;2.78;;;;;;;12.24;48.07;94779.53;5524936;25;20029;-65
2024/04/22 08:44:34;;;;;;;3.67;2.78;;;;;;;12.18;46.42;94787.06;5494534;26;20065;-65
2024/04/22 08:46:59;;;;;;;4.47;2.60;;;;;;;12.10;45.70;94781.72;5494409;26;20613;-65
2024/04/22 08:49:25;;;;;;;3.28;2.92;;;;;;;11.84;46.18;94787.44;5525010;26;20030;-65
2024/04/22 08:51:55;;;;;;;3.75;2.85;;;;;;;11.41;46.38;94788.56;5526469;25;19993;-65
2024/04/22 08:54:22;;;;;;;4.95;3.42;;;;;;;11.41;46.56;94786.78;5495767;26;20005;-65
2024/04/22 08:56:48;;;;;;;3.80;3.00;;;;;;;11.45;46.65;94787.34;5524784;25;20526;-65
2024/04/22 08:59:13;;;;;;;4.18;2.95;;;;;;;12.08;50.76;94795.69;5462026;26;20527;-66
2024/04/22 09:01:38;;;;;;;3.08;2.58;;;;;;;12.30;44.98;94791.97;5525760;25;20001;-65
2024/04/22 09:04:04;;;;;;;2.75;2.38;;;;;;;12.42;44.78;94784.84;5524600;26;20005;-64
2024/04/22 09:06:29;;;;;;;3.10;2.45;;;;;;;12.56;43.91;94780.97;5526203;25;20436;-65
2024/04/22 09:08:55;;;;;;;2.97;2.25;;;;;;;12.69;44.35;94780.69;5524091;26;20468;-65
2024/04/22 09:11:20;;;;;;;3.83;2.83;;;;;;;12.65;45.08;94785.38;5524103;25;20022;-65
2024/04/22 09:13:46;;;;;;;3.38;2.42;;;;;;;12.61;42.93;94781.38;5526130;25;19997;-65
2024/04/22 09:16:17;;;;;;;3.65;3.00;;;;;;;12.32;44.98;94784.03;5525541;25;19993;-65
2024/04/22 09:18:43;;;;;;;4.28;3.40;;;;;;;11.88;46.52;94775.00;5525623;25;20571;-65
2024/04/22 09:21:09;;;;;;;4.72;3.78;;;;;;;11.78;49.56;94759.31;5525755;25;20001;-64
2024/04/22 09:23:34;;;;;;;4.43;3.63;;;;;;;11.80;47.16;94781.66;5524137;26;20008;-65
2024/04/22 09:26:00;;;;;;;4.00;3.50;;;;;;;12.10;47.25;94784.31;5524089;26;20004;-65
2024/04/22 09:28:29;;;;;;;3.92;3.22;;;;;;;12.41;45.01;94782.38;5493132;26;19998;-65
2024/04/22 09:30:54;;;;;;;4.82;4.05;;;;;;;12.41;48.14;94774.56;5493097;26;20049;-65
2024/04/22 09:33:23;;;;;;;5.10;4.05;;;;;;;12.07;47.87;94772.41;5493163;26;20431;-65
2024/04/22 09:35:51;;;;;;;7.20;4.50;;;;;;;12.08;49.02;94780.06;5523830;26;19990;-65
2024/04/22 09:38:16;;;;;;;5.05;4.55;;;;;;;11.85;48.91;94778.66;5493374;26;20423;-65
2024/04/22 09:40:42;;;;;;;7.13;4.65;;;;;;;11.66;50.33;94778.63;5462823;26;20055;-64
2024/04/22 09:43:07;;;;;;;6.10;4.97;;;;;;;11.45;49.91;94779.56;5493330;26;19997;-64
2024/04/22 09:45:33;;;;;;;5.00;4.40;;;;;;;11.52;49.85;94777.22;5524215;26;19990;-64
2024/04/22 09:47:58;;;;;;;4.38;3.90;;;;;;;11.57;49.25;94765.47;5524012;25;20022;-65
2024/04/22 09:50:24;;;;;;;4.60;3.88;;;;;;;11.64;48.36;94776.16;5464958;26;20333;-64
2024/04/22 09:52:49;;;;;;;4.38;3.95;;;;;;;11.49;48.64;94778.31;5500741;26;19990;-64
2024/04/22 09:55:15;;;;;;;8.95;4.10;;;;;;;11.91;48.43;94779.94;5501187;26;20353;-64
2024/04/22 09:57:41;;;;;;;6.10;4.18;;;;;;;11.50;49.11;94776.53;5533671;25;20097;-66
2024/04/22 10:00:08;;;;;;;4.72;3.92;;;;;;;11.36;48.99;94772.53;5531689;26;20009;-64
2024/04/22 10:02:34;;;;;;;5.18;4.15;;;;;;;11.35;49.58;94771.72;5531729;25;20000;-64
2024/04/22 10:04:59;;;;;;;6.13;4.47;;;;;;;11.53;49.09;94771.91;5531720;26;19990;-64
2024/04/22 10:07:24;;;;;;;5.10;4.57;;;;;;;11.49;48.95;94767.91;5533372;25;19994;-65
2024/04/22 10:09:50;;;;;;;4.68;3.67;;;;;;;11.51;50.91;94755.59;5531927;26;20037;-64
2024/04/22 10:12:27;;;;;;;4.95;3.75;;;;;;;11.79;47.92;94758.38;5531368;25;19993;-64
2024/04/22 10:15:05;;;;;;;4.70;4.07;;;;;;;11.78;49.63;94756.72;5533410;25;20212;-65
2024/04/22 10:17:32;;;;;;;4.95;3.90;;;;;;;11.63;48.60;94756.31;5532959;25;20440;-64
2024/04/22 10:19:59;;;;;;;5.95;4.18;;;;;;;11.91;48.43;94765.13;5531467;26;19998;-64
2024/04/22 10:22:31;;;;;;;6.43;4.45;;;;;;;11.78;48.49;94756.72;5500699;26;20016;-64
2024/04/22 10:24:58;;;;;;;5.45;4.28;;;;;;;11.89;48.36;94761.00;5531411;26;20435;-64
2024/04/22 10:27:23;;;;;;;4.88;4.10;;;;;;;12.03;47.41;94758.81;5533046;25;20710;-65
2024/04/22 10:29:49;;;;;;;4.65;3.85;;;;;;;12.06;49.04;94755.97;5531013;26;20004;-64
2024/04/22 10:32:15;;;;;;;5.13;4.50;;;;;;;12.05;48.26;94756.91;5500548;26;20013;-64
2024/04/22 10:34:43;;;;;;;4.97;4.25;;;;;;;12.07;49.00;94756.78;5500528;26;20005;-64
2024/04/22 10:37:09;;;;;;;5.57;4.22;;;;;;;11.99;47.80;94757.47;5532585;25;19993;-64
2024/04/22 10:39:35;;;;;;;4.68;3.78;;;;;;;12.11;46.98;94757.31;5500700;26;20012;-65
2024/04/22 10:42:00;;;;;;;4.78;4.00;;;;;;;12.25;46.85;94741.28;5530693;25;20021;-65
2024/04/22 10:44:26;;;;;;;4.50;3.92;;;;;;;12.31;45.05;94743.31;5530619;26;20037;-65
2024/04/22 10:46:51;;;;;;;4.50;4.10;;;;;;;12.49;46.93;94752.06;5499604;26;20001;-64
2024/04/22 10:49:17;;;;;;;4.53;3.90;;;;;;;12.35;46.79;94754.28;5499775;26;20001;-64
2024/04/22 10:51:42;;;;;;;5.45;4.22;;;;;;;12.45;47.85;94752.47;5532346;25;20338;-65
2024/04/22 10:54:08;;;;;;;4.40;3.83;;;;;;;12.56;46.06;94735.88;5532024;25;20070;-64
2024/04/22 10:56:33;;;;;;;4.95;4.25;;;;;;;12.43;47.92;94747.41;5499754;26;20064;-65
2024/04/22 10:58:59;;;;;;;5.30;4.40;;;;;;;12.29;46.92;94746.06;5531770;25;19997;-65
2024/04/22 11:01:25;;;;;;;5.43;4.63;;;;;;;12.28;49.10;94759.22;5528592;25;20075;-65
2024/04/22 11:03:51;;;;;;;5.40;4.13;;;;;;;12.08;47.89;94753.19;5525554;26;20025;-65
2024/04/22 11:06:16;;;;;;;5.82;4.20;;;;;;;12.19;48.22;94754.84;5525967;25;19999;-65
2024/04/22 11:08:42;;;;;;;4.75;4.25;;;;;;;12.11;48.32;94752.09;5527821;25;20431;-65
2024/04/22 11:11:08;;;;;;;6.57;4.25;;;;;;;12.38;49.18;94761.81;5526336;25;20001;-65
2024/04/22 11:13:33;;;;;;;5.28;4.78;;;;;;;12.13;46.51;94760.63;5527495;25;20066;-65
2024/04/22 11:16:08;;;;;;;5.03;4.53;;;;;;;12.58;48.38;94760.00;5525873;26;19997;-65
2024/04/22 11:18:34;;;;;;;5.57;4.95;;;;;;;12.03;48.29;94753.59;5496056;26;20001;-65
2024/04/22 11:20:59;;;;;;;4.85;4.28;;;;;;;12.06;49.12;94763.78;5527583;25;19993;-66
2024/04/22 11:23:25;;;;;;;5.00;4.13;;;;;;;12.34;47.41;94753.47;5527383;25;20018;-65
2024/04/22 11:25:50;;;;;;;4.20;3.67;;;;;;;12.47;48.06;94748.78;5527823;25;19993;-65
2024/04/22 11:28:16;;;;;;;6.40;5.03;;;;;;;12.38;46.63;94754.00;5525610;25;20064;-65
2024/04/22 11:30:41;;;;;;;4.85;4.35;;;;;;;12.45;47.14;94750.72;5527832;25;20002;-65
2024/04/22 11:33:07;;;;;;;5.88;4.55;;;;;;;12.39;48.64;94755.66;5494859;26;20005;-65
2024/04/22 11:35:36;;;;;;;4.65;4.15;;;;;;;12.51;49.29;94750.16;5494882;26;20003;-65
2024/04/22 11:38:01;;;;;;;6.13;4.20;;;;;;;12.80;48.61;94745.81;5525605;25;20073;-65